createdAt,value
2023-03-02T00:01:40.650Z,37.24
2023-03-02T00:04:11.352Z,37.31
2023-03-02T00:06:38.223Z,36.85
2023-03-02T00:09:06.495Z,37.24
2023-03-02T00:11:34.565Z,36.92
2023-03-02T00:14:01.761Z,36.91
2023-03-02T00:16:28.775Z,37.40
2023-03-02T00:18:58.086Z,37.02
2023-03-02T00:21:24.963Z,37.39
2023-03-02T00:23:52.604Z,37.28
2023-03-02T00:26:19.848Z,37.45
2023-03-02T00:28:47.047Z,37.61
2023-03-02T00:31:13.994Z,37.70
2023-03-02T00:33:41.044Z,38.16
2023-03-02T00:36:15.255Z,38.09
2023-03-02T00:38:42.224Z,37.92
2023-03-02T00:41:09.141Z,38.49
2023-03-02T00:43:36.012Z,38.52
2023-03-02T00:46:09.126Z,38.37
2023-03-02T00:48:36.262Z,38.98
2023-03-02T00:51:03.203Z,39.01
2023-03-02T00:53:34.204Z,38.99
2023-03-02T00:56:03.350Z,39.33
2023-03-02T00:58:30.603Z,39.48
2023-03-02T01:00:58.427Z,39.27
2023-03-02T01:03:25.694Z,39.11
2023-03-02T01:05:55.720Z,39.43
2023-03-02T01:08:23.388Z,39.03
2023-03-02T01:10:54.241Z,39.51
2023-03-02T01:13:21.447Z,39.31
2023-03-02T01:15:59.750Z,39.08
2023-03-02T01:18:26.740Z,39.58
2023-03-02T01:21:00.830Z,39.14
2023-03-02T01:23:27.804Z,39.31
2023-03-02T01:25:54.831Z,39.38
2023-03-02T01:28:21.761Z,38.96
2023-03-02T01:30:49.284Z,39.11
2023-03-02T01:33:21.542Z,39.25
2023-03-02T01:35:48.788Z,39.21
2023-03-02T01:38:15.941Z,39.08
2023-03-02T01:40:42.910Z,39.03
2023-03-02T01:43:12.741Z,39.08
2023-03-02T01:45:43.443Z,39.16
2023-03-02T01:48:11.748Z,39.15
2023-03-02T01:50:38.696Z,38.97
2023-03-02T01:53:06.069Z,39.38
2023-03-02T01:55:34.328Z,39.15
2023-03-02T01:58:01.430Z,39.17
2023-03-02T02:00:30.250Z,39.26
2023-03-02T02:03:09.153Z,39.26
2023-03-02T02:05:38.437Z,39.64
2023-03-02T02:08:06.062Z,39.47
2023-03-02T02:10:34.088Z,39.63
2023-03-02T02:13:01.623Z,39.78
2023-03-02T02:15:28.671Z,39.53
2023-03-02T02:17:55.914Z,40.05
2023-03-02T02:20:26.104Z,39.80
2023-03-02T02:22:59.457Z,39.98
2023-03-02T02:25:29.386Z,40.07
2023-03-02T02:27:56.659Z,40.24
2023-03-02T02:30:24.605Z,40.28
2023-03-02T02:32:53.714Z,40.02
2023-03-02T02:35:22.884Z,40.28
2023-03-02T02:37:52.676Z,40.27
2023-03-02T02:40:23.507Z,40.76
2023-03-02T02:42:54.539Z,40.78
2023-03-02T02:45:23.851Z,40.51
2023-03-02T02:47:51.361Z,40.51
2023-03-02T02:50:23.220Z,40.90
2023-03-02T02:52:53.772Z,40.64
2023-03-02T02:55:21.672Z,40.67
2023-03-02T02:57:49.412Z,40.78
2023-03-02T03:00:18.903Z,40.86
2023-03-02T03:02:47.994Z,40.72
2023-03-02T03:05:15.652Z,40.75
2023-03-02T03:07:44.643Z,40.84
2023-03-02T03:10:14.275Z,40.56
2023-03-02T03:12:42.099Z,40.73
2023-03-02T03:15:09.039Z,40.44
2023-03-02T03:17:35.928Z,40.72
2023-03-02T03:20:06.636Z,40.92
2023-03-02T03:22:35.475Z,40.65
2023-03-02T03:25:02.340Z,40.42
2023-03-02T03:27:29.063Z,40.80
2023-03-02T03:29:55.839Z,40.72
2023-03-02T03:32:22.742Z,40.96
2023-03-02T03:34:49.543Z,40.70
2023-03-02T03:37:18.026Z,41.12
2023-03-02T03:39:45.213Z,40.76
2023-03-02T03:42:12.382Z,40.71
2023-03-02T03:44:39.124Z,41.01
2023-03-02T03:47:08.318Z,40.81
2023-03-02T03:49:37.256Z,40.85
2023-03-02T03:52:06.411Z,41.01
2023-03-02T03:54:33.190Z,40.85
2023-03-02T03:57:04.271Z,40.69
2023-03-02T03:59:31.177Z,41.06
2023-03-02T04:01:59.996Z,40.73
2023-03-02T04:04:28.637Z,40.89
2023-03-02T04:06:55.805Z,40.80
2023-03-02T04:09:23.175Z,40.63
2023-03-02T04:11:50.840Z,41.07
2023-03-02T04:14:19.234Z,40.63
2023-03-02T04:16:46.003Z,40.94
2023-03-02T04:19:13.401Z,40.80
2023-03-02T04:21:41.586Z,41.02
2023-03-02T04:24:08.866Z,40.74
2023-03-02T04:26:36.414Z,40.92
2023-03-02T04:29:03.631Z,40.90
2023-03-02T04:31:33.191Z,40.84
2023-03-02T04:34:00.508Z,40.70
2023-03-02T04:36:27.445Z,41.14
2023-03-02T04:38:56.432Z,41.04
2023-03-02T04:41:23.382Z,40.83
2023-03-02T04:43:50.098Z,41.16
2023-03-02T04:46:20.115Z,41.09
2023-03-02T04:48:47.112Z,40.88
2023-03-02T04:51:17.099Z,40.79
2023-03-02T04:53:43.994Z,41.10
2023-03-02T04:56:10.922Z,40.76
2023-03-02T04:58:37.690Z,40.98
2023-03-02T05:01:04.680Z,41.08
2023-03-02T05:03:31.529Z,41.00
2023-03-02T05:05:58.294Z,41.08
2023-03-02T05:08:25.048Z,40.88
2023-03-02T05:10:51.831Z,41.00
2023-03-02T05:13:18.727Z,40.72
2023-03-02T05:15:45.476Z,41.08
2023-03-02T05:18:12.807Z,41.05
2023-03-02T05:20:39.955Z,41.09
2023-03-02T05:23:08.828Z,40.89
2023-03-02T05:25:36.639Z,40.77
2023-03-02T05:28:03.700Z,40.96
2023-03-02T05:30:32.680Z,40.85
2023-03-02T05:33:01.819Z,41.05
2023-03-02T05:35:28.670Z,41.21
2023-03-02T05:37:57.901Z,41.06
2023-03-02T05:40:24.754Z,41.58
2023-03-02T05:42:51.870Z,41.67
2023-03-02T05:45:20.577Z,41.73
2023-03-02T05:47:48.148Z,42.04
2023-03-02T05:50:14.995Z,42.17
2023-03-02T05:52:41.762Z,42.65
2023-03-02T05:55:09.262Z,41.94
2023-03-02T05:57:36.061Z,41.82
2023-03-02T06:00:02.907Z,41.78
2023-03-02T06:02:29.730Z,41.80
2023-03-02T06:04:56.758Z,41.79
2023-03-02T06:07:23.780Z,41.83
2023-03-02T06:09:51.269Z,41.69
2023-03-02T06:12:18.383Z,41.60
2023-03-02T06:14:45.240Z,41.62
2023-03-02T06:17:11.974Z,41.55
2023-03-02T06:19:38.722Z,41.31
2023-03-02T06:22:05.558Z,41.48
2023-03-02T06:24:32.329Z,41.48
2023-03-02T06:26:59.169Z,41.25
2023-03-02T06:29:26.008Z,40.78
2023-03-02T06:31:52.800Z,40.78
2023-03-02T06:34:19.618Z,40.93
2023-03-02T06:36:46.436Z,40.65
2023-03-02T06:39:16.059Z,40.75
2023-03-02T06:41:43.483Z,40.69
2023-03-02T06:44:10.289Z,40.30
2023-03-02T06:46:37.592Z,40.18
2023-03-02T06:49:04.883Z,40.38
2023-03-02T06:51:32.172Z,40.42
2023-03-02T06:53:59.942Z,40.24
2023-03-02T06:56:27.451Z,40.00
2023-03-02T06:58:54.281Z,40.16
2023-03-02T07:01:21.177Z,40.14
2023-03-02T07:03:48.153Z,39.87
2023-03-02T07:06:15.098Z,39.80
2023-03-02T07:08:41.862Z,39.68
2023-03-02T07:11:09.432Z,39.68
2023-03-02T07:13:38.174Z,39.75
2023-03-02T07:16:07.258Z,39.44
2023-03-02T07:18:36.319Z,39.55
2023-03-02T07:21:03.447Z,39.31
2023-03-02T07:23:30.313Z,39.50
2023-03-02T07:25:58.106Z,39.00
2023-03-02T07:28:25.540Z,38.63
2023-03-02T07:30:53.513Z,38.02
2023-03-02T07:33:22.796Z,37.04
2023-03-02T07:35:49.623Z,36.90
2023-03-02T07:38:17.048Z,36.53
2023-03-02T07:40:45.098Z,36.03
2023-03-02T07:43:11.957Z,36.93
2023-03-02T07:45:39.188Z,34.43
2023-03-02T07:48:06.234Z,34.46
2023-03-02T07:50:33.248Z,34.88
2023-03-02T07:53:02.329Z,34.54
2023-03-02T07:55:29.149Z,34.83
2023-03-02T07:57:56.163Z,34.53
2023-03-02T08:00:23.251Z,35.05
2023-03-02T08:02:50.175Z,34.95
2023-03-02T08:05:17.201Z,34.82
2023-03-02T08:07:46.561Z,34.75
2023-03-02T08:10:13.443Z,34.63
2023-03-02T08:12:40.416Z,34.80
2023-03-02T08:15:07.820Z,34.71
2023-03-02T08:17:34.691Z,34.84
2023-03-02T08:20:01.815Z,35.04
2023-03-02T08:22:28.651Z,35.16
2023-03-02T08:24:59.934Z,34.65
2023-03-02T08:27:27.062Z,34.98
2023-03-02T08:29:56.453Z,35.21
2023-03-02T08:32:23.493Z,34.81
2023-03-02T08:34:52.114Z,35.10
2023-03-02T08:37:21.614Z,35.32
2023-03-02T08:39:48.696Z,35.63
2023-03-02T08:42:15.776Z,35.30
2023-03-02T08:44:42.916Z,34.90
2023-03-02T08:47:09.772Z,35.13
2023-03-02T08:49:38.432Z,35.20
2023-03-02T08:52:05.352Z,34.83
2023-03-02T08:54:34.649Z,34.76
2023-03-02T08:57:02.404Z,35.08
2023-03-02T08:59:29.626Z,34.80
2023-03-02T09:01:56.587Z,34.45
2023-03-02T09:04:23.608Z,34.68
2023-03-02T09:06:50.616Z,34.77
2023-03-02T09:09:17.697Z,34.55
2023-03-02T09:11:45.162Z,34.78
2023-03-02T09:14:30.123Z,34.68
2023-03-02T09:16:57.505Z,34.41
2023-03-02T09:19:24.418Z,34.58
2023-03-02T09:21:51.417Z,34.76
2023-03-02T09:24:18.879Z,34.61
2023-03-02T09:26:45.855Z,34.85
2023-03-02T09:29:13.654Z,34.70
2023-03-02T09:31:40.553Z,34.60
2023-03-02T09:34:41.162Z,34.46
2023-03-02T09:37:09.002Z,34.94
2023-03-02T09:39:37.330Z,34.96
2023-03-02T09:42:07.482Z,34.78
2023-03-02T09:44:37.375Z,34.52
2023-03-02T09:47:05.346Z,34.57
2023-03-02T09:49:40.506Z,34.81
2023-03-02T09:52:11.969Z,35.06
2023-03-02T09:54:40.320Z,34.65
2023-03-02T09:57:20.094Z,34.64
2023-03-02T09:59:49.274Z,34.91
2023-03-02T10:02:19.191Z,34.83
2023-03-02T10:04:48.201Z,34.48
2023-03-02T10:07:16.753Z,34.79
2023-03-02T10:09:43.791Z,34.99
2023-03-02T10:12:13.831Z,35.07
2023-03-02T10:14:44.260Z,35.04
2023-03-02T10:17:14.243Z,34.72
2023-03-02T10:19:45.309Z,34.76
2023-03-02T10:22:15.195Z,34.47
2023-03-02T10:24:45.275Z,34.57
2023-03-02T10:27:13.602Z,34.58
2023-03-02T10:29:43.702Z,34.56
2023-03-02T10:32:13.701Z,34.69
2023-03-02T10:34:40.858Z,34.61
2023-03-02T10:37:10.845Z,34.62
2023-03-02T10:39:37.868Z,34.48
2023-03-02T10:42:07.714Z,34.64
2023-03-02T10:44:38.091Z,34.68
2023-03-02T10:47:05.919Z,34.47
2023-03-02T10:49:34.343Z,34.58
2023-03-02T10:52:02.673Z,34.16
2023-03-02T10:54:49.725Z,34.45
2023-03-02T10:57:20.167Z,34.16
2023-03-02T10:59:47.856Z,34.08
2023-03-02T11:02:18.276Z,34.00
2023-03-02T11:04:45.838Z,34.06
2023-03-02T11:07:16.093Z,34.12
2023-03-02T11:09:43.568Z,34.28
2023-03-02T11:12:15.856Z,34.58
2023-03-02T11:14:44.909Z,34.68
2023-03-02T11:17:14.850Z,34.40
2023-03-02T11:19:42.373Z,34.40
2023-03-02T11:22:16.808Z,34.05
2023-03-02T11:24:48.652Z,34.44
2023-03-02T11:27:20.579Z,34.32
2023-03-02T11:29:51.415Z,34.42
2023-03-02T11:32:20.563Z,34.25
2023-03-02T11:34:47.998Z,34.26
2023-03-02T11:37:19.032Z,34.50
2023-03-02T11:39:55.637Z,34.40
2023-03-02T11:42:25.076Z,34.36
2023-03-02T11:44:52.123Z,34.51
2023-03-02T11:47:20.984Z,34.31
2023-03-02T11:49:54.316Z,34.22
2023-03-02T11:52:22.655Z,34.31
2023-03-02T11:54:52.936Z,34.25
2023-03-02T11:57:22.977Z,34.38
2023-03-02T11:59:51.139Z,34.39
2023-03-02T12:02:18.755Z,34.49
2023-03-02T12:04:47.399Z,34.51
2023-03-02T12:07:17.547Z,34.38
2023-03-02T12:09:56.624Z,34.42
2023-03-02T12:12:26.746Z,34.61
2023-03-02T12:14:53.817Z,34.41
2023-03-02T12:17:23.913Z,34.16
2023-03-02T12:19:54.703Z,34.61
2023-03-02T12:22:24.678Z,34.50
2023-03-02T12:24:59.482Z,34.45
2023-03-02T12:27:27.557Z,34.71
2023-03-02T12:29:57.656Z,34.49
2023-03-02T12:32:26.394Z,34.37
2023-03-02T12:34:55.366Z,34.70
2023-03-02T12:37:25.309Z,34.85
2023-03-02T12:39:55.339Z,34.67
2023-03-02T12:42:25.293Z,34.83
2023-03-02T12:44:59.982Z,34.62
2023-03-02T12:47:30.249Z,34.72
2023-03-02T12:49:59.105Z,34.48
2023-03-02T12:52:27.697Z,34.54
2023-03-02T12:54:57.807Z,34.82
2023-03-02T12:57:24.779Z,34.53
2023-03-02T12:59:53.304Z,34.48
2023-03-02T13:02:22.278Z,34.47
2023-03-02T13:04:52.237Z,34.84
2023-03-02T13:07:20.594Z,34.88
2023-03-02T13:09:56.346Z,34.67
2023-03-02T13:12:25.685Z,34.89
2023-03-02T13:14:54.683Z,34.52
2023-03-02T13:17:24.741Z,34.63
2023-03-02T13:19:52.060Z,34.95
2023-03-02T13:22:23.534Z,34.96
2023-03-02T13:24:55.335Z,35.05
2023-03-02T13:27:23.675Z,35.01
2023-03-02T13:29:53.125Z,35.27
2023-03-02T13:32:23.302Z,34.96
2023-03-02T13:34:53.390Z,35.13
2023-03-02T13:37:23.444Z,35.22
2023-03-02T13:39:53.533Z,35.52
2023-03-02T13:42:23.587Z,35.48
2023-03-02T13:44:54.256Z,35.52
2023-03-02T13:47:23.812Z,35.52
2023-03-02T13:49:51.076Z,35.42
2023-03-02T13:52:22.828Z,35.27
2023-03-02T13:54:52.843Z,35.31
2023-03-02T13:57:29.698Z,35.65
2023-03-02T13:59:58.234Z,35.67
2023-03-02T14:02:25.608Z,35.34
2023-03-02T14:04:53.212Z,35.74
2023-03-02T14:07:21.615Z,35.51
2023-03-02T14:09:48.879Z,35.69
2023-03-02T14:12:19.017Z,35.61
2023-03-02T14:14:45.920Z,35.75
2023-03-02T14:17:14.838Z,35.48
2023-03-02T14:19:41.891Z,35.80
2023-03-02T14:22:13.676Z,35.85
2023-03-02T14:24:43.500Z,35.85
2023-03-02T14:27:14.201Z,35.58
2023-03-02T14:29:51.492Z,35.43
2023-03-02T14:32:18.792Z,35.55
2023-03-02T14:34:45.781Z,35.66
2023-03-02T14:37:14.837Z,35.52
2023-03-02T14:39:43.498Z,35.51
2023-03-02T14:42:12.845Z,35.74
2023-03-02T14:44:48.167Z,35.56
2023-03-02T14:47:16.868Z,35.58
2023-03-02T14:49:43.967Z,35.57
2023-03-02T14:52:14.256Z,35.62
2023-03-02T14:54:46.970Z,35.82
2023-03-02T14:57:16.975Z,35.61
2023-03-02T14:59:46.091Z,36.03
2023-03-02T15:02:24.691Z,35.82
2023-03-02T15:04:56.512Z,35.81
2023-03-02T15:07:24.667Z,35.70
2023-03-02T15:09:51.647Z,35.75
2023-03-02T15:12:18.582Z,35.89
2023-03-02T15:14:48.467Z,35.69
2023-03-02T15:17:15.438Z,35.75
2023-03-02T15:19:42.317Z,35.43
2023-03-02T15:22:09.276Z,35.67
2023-03-02T15:24:43.269Z,35.24
2023-03-02T15:27:10.377Z,35.46
2023-03-02T15:29:37.596Z,35.30
2023-03-02T15:32:06.106Z,35.48
2023-03-02T15:34:33.157Z,35.23
2023-03-02T15:37:00.050Z,35.20
2023-03-02T15:39:26.913Z,35.06
2023-03-02T15:41:54.472Z,35.02
2023-03-02T15:44:49.881Z,35.36
2023-03-02T15:47:18.258Z,35.12
2023-03-02T15:49:45.668Z,34.92
2023-03-02T15:52:16.050Z,34.99
2023-03-02T15:54:45.187Z,35.05
2023-03-02T15:57:16.363Z,35.28
2023-03-02T15:59:46.546Z,35.12
2023-03-02T16:02:15.696Z,34.98
2023-03-02T16:04:57.021Z,34.89
2023-03-02T16:07:37.657Z,34.99
2023-03-02T16:10:05.307Z,35.15
2023-03-02T16:12:32.236Z,34.97
2023-03-02T16:14:59.259Z,35.12
2023-03-02T16:17:26.577Z,34.85
2023-03-02T16:19:53.827Z,34.72
2023-03-02T16:22:20.704Z,34.99
2023-03-02T16:24:49.197Z,35.02
2023-03-02T16:27:16.284Z,34.70
2023-03-02T16:29:43.725Z,34.70
2023-03-02T16:32:11.027Z,34.38
2023-03-02T16:34:38.391Z,34.63
2023-03-02T16:37:12.447Z,34.00
2023-03-02T16:39:56.902Z,34.47
2023-03-02T16:42:24.245Z,34.18
2023-03-02T16:44:55.659Z,34.33
2023-03-02T16:47:35.107Z,34.05
2023-03-02T16:50:03.848Z,34.60
2023-03-02T16:52:30.996Z,34.39
2023-03-02T16:54:58.041Z,34.64
2023-03-02T16:57:25.324Z,34.52
2023-03-02T16:59:52.436Z,34.60
2023-03-02T17:02:19.489Z,34.61
2023-03-02T17:04:46.735Z,35.07
2023-03-02T17:07:16.676Z,34.70
2023-03-02T17:09:43.555Z,34.84
2023-03-02T17:12:10.606Z,34.96
2023-03-02T17:14:39.866Z,34.96
2023-03-02T17:17:06.875Z,34.81
2023-03-02T17:19:33.742Z,34.97
2023-03-02T17:22:02.272Z,34.96
2023-03-02T17:24:43.536Z,34.65
2023-03-02T17:27:24.059Z,34.94
2023-03-02T17:29:52.263Z,35.09
2023-03-02T17:32:20.735Z,35.13
2023-03-02T17:34:48.574Z,34.70
2023-03-02T17:37:17.859Z,35.10
2023-03-02T17:39:45.023Z,35.17
2023-03-02T17:42:11.989Z,34.98
2023-03-02T17:44:39.453Z,34.77
2023-03-02T17:47:08.843Z,35.06
2023-03-02T17:49:40.363Z,35.12
2023-03-02T17:52:08.408Z,35.09
2023-03-02T17:54:38.364Z,35.21
2023-03-02T17:57:06.017Z,35.16
2023-03-02T17:59:36.491Z,35.20
2023-03-02T18:02:10.269Z,34.77
2023-03-02T18:04:37.832Z,35.11
2023-03-02T18:07:06.585Z,34.84
2023-03-02T18:09:34.914Z,34.96
2023-03-02T18:12:04.870Z,34.81
2023-03-02T18:14:32.810Z,35.00
2023-03-02T18:17:08.584Z,35.19
2023-03-02T18:19:37.326Z,35.05
2023-03-02T18:22:04.943Z,35.26
2023-03-02T18:24:32.785Z,35.45
2023-03-02T18:26:59.863Z,35.40
2023-03-02T18:29:27.253Z,35.17
2023-03-02T18:31:54.469Z,35.42
2023-03-02T18:34:21.746Z,35.48
2023-03-02T18:36:48.751Z,35.17
2023-03-02T18:39:15.748Z,35.03
2023-03-02T18:41:44.899Z,35.47
2023-03-02T18:44:12.247Z,35.31
2023-03-02T18:46:39.435Z,35.01
2023-03-02T18:49:06.950Z,35.30
2023-03-02T18:51:34.248Z,35.17
2023-03-02T18:54:23.760Z,35.04
2023-03-02T18:56:51.582Z,35.02
2023-03-02T18:59:20.532Z,35.06
2023-03-02T19:01:47.752Z,35.32
2023-03-02T19:04:15.217Z,35.01
2023-03-02T19:06:42.507Z,35.23
2023-03-02T19:09:09.738Z,35.19
2023-03-02T19:11:37.230Z,34.98
2023-03-02T19:14:10.407Z,35.12
2023-03-02T19:16:37.846Z,34.82
2023-03-02T19:19:05.018Z,35.22
2023-03-02T19:21:31.904Z,34.96
2023-03-02T19:23:58.864Z,35.19
2023-03-02T19:26:26.064Z,34.96
2023-03-02T19:28:53.161Z,34.70
2023-03-02T19:31:20.044Z,35.17
2023-03-02T19:33:46.955Z,34.70
2023-03-02T19:36:14.313Z,35.16
2023-03-02T19:38:43.113Z,35.21
2023-03-02T19:41:12.411Z,34.98
2023-03-02T19:43:40.697Z,34.79
2023-03-02T19:46:10.967Z,35.17
2023-03-02T19:48:38.476Z,35.16
2023-03-02T19:51:06.091Z,35.00
2023-03-02T19:53:33.343Z,34.68
2023-03-02T19:56:03.250Z,35.16
2023-03-02T19:58:32.455Z,34.87
2023-03-02T20:00:59.441Z,35.00
2023-03-02T20:03:26.374Z,34.98
2023-03-02T20:05:54.692Z,35.04
2023-03-02T20:08:25.606Z,35.29
2023-03-02T20:10:52.745Z,34.93
2023-03-02T20:13:21.049Z,34.72
2023-03-02T20:15:53.228Z,35.16
2023-03-02T20:18:21.729Z,35.01
2023-03-02T20:20:50.648Z,35.25
2023-03-02T20:23:18.736Z,35.29
2023-03-02T20:25:48.396Z,35.28
2023-03-02T20:28:18.227Z,34.85
2023-03-02T20:30:48.816Z,35.26
2023-03-02T20:33:18.726Z,35.18
2023-03-02T20:35:46.575Z,34.80
2023-03-02T20:38:16.120Z,34.80
2023-03-02T20:40:43.458Z,35.14
2023-03-02T20:43:10.493Z,34.74
2023-03-02T20:45:37.997Z,34.98
2023-03-02T20:48:05.670Z,34.75
2023-03-02T20:50:36.353Z,35.01
2023-03-02T20:53:04.228Z,34.72
2023-03-02T20:55:31.192Z,34.83
2023-03-02T20:57:58.216Z,34.61
2023-03-02T21:00:26.586Z,34.62
2023-03-02T21:02:53.442Z,34.97
2023-03-02T21:05:21.103Z,34.68
2023-03-02T21:07:48.223Z,34.80
2023-03-02T21:10:17.106Z,34.47
2023-03-02T21:12:44.765Z,34.96
2023-03-02T21:15:12.147Z,34.64
2023-03-02T21:17:42.077Z,34.75
2023-03-02T21:20:09.697Z,34.71
2023-03-02T21:22:36.897Z,34.86
2023-03-02T21:25:04.128Z,34.65
2023-03-02T21:27:31.140Z,34.86
2023-03-02T21:29:58.090Z,34.66
2023-03-02T21:32:25.406Z,34.86
2023-03-02T21:34:52.722Z,34.70
2023-03-02T21:37:19.703Z,34.89
2023-03-02T21:39:46.508Z,35.03
2023-03-02T21:42:13.535Z,34.68
2023-03-02T21:44:40.432Z,35.06
2023-03-02T21:47:07.304Z,34.79
2023-03-02T21:49:36.739Z,34.73
2023-03-02T21:52:04.292Z,35.01
2023-03-02T21:54:31.109Z,34.72
2023-03-02T21:56:58.030Z,35.09
2023-03-02T21:59:24.889Z,34.58
2023-03-02T22:01:51.903Z,34.62
2023-03-02T22:04:18.715Z,34.72
2023-03-02T22:06:45.595Z,35.08
2023-03-02T22:09:12.527Z,35.13
2023-03-02T22:11:39.593Z,34.95
2023-03-02T22:14:11.763Z,35.04
2023-03-02T22:16:40.428Z,35.02
2023-03-02T22:19:20.703Z,34.82
2023-03-02T22:21:48.024Z,35.03
2023-03-02T22:24:20.790Z,35.04
2023-03-02T22:26:50.572Z,34.96
2023-03-02T22:29:17.808Z,35.03
2023-03-02T22:31:47.672Z,35.35
2023-03-02T22:34:18.178Z,35.45
2023-03-02T22:36:46.493Z,35.45
2023-03-02T22:39:17.470Z,35.23
2023-03-02T22:41:44.317Z,35.17
2023-03-02T22:44:12.238Z,35.47
2023-03-02T22:46:39.593Z,35.49
2023-03-02T22:49:09.639Z,35.11
2023-03-02T22:51:36.555Z,35.61
2023-03-02T22:54:03.290Z,35.22
2023-03-02T22:56:32.012Z,35.30
2023-03-02T22:59:05.549Z,35.48
2023-03-02T23:01:35.790Z,35.44
2023-03-02T23:04:13.168Z,35.65
2023-03-02T23:06:46.108Z,35.49
2023-03-02T23:09:15.089Z,35.78
2023-03-02T23:11:42.720Z,35.73
2023-03-02T23:14:13.649Z,35.92
2023-03-02T23:16:41.896Z,35.96
2023-03-02T23:19:09.510Z,36.17
2023-03-02T23:21:40.075Z,36.19
2023-03-02T23:24:10.388Z,36.39
2023-03-02T23:26:37.933Z,35.84
2023-03-02T23:29:06.059Z,36.17
2023-03-02T23:31:33.914Z,36.08
2023-03-02T23:34:03.284Z,36.05
2023-03-02T23:36:32.153Z,36.05
2023-03-02T23:38:58.924Z,36.03
2023-03-02T23:41:26.287Z,35.89
2023-03-02T23:43:54.163Z,36.16
2023-03-02T23:46:21.259Z,35.69
2023-03-02T23:48:48.709Z,36.11
2023-03-02T23:51:16.092Z,35.81
2023-03-02T23:53:42.868Z,35.80
2023-03-02T23:56:09.764Z,35.91
2023-03-02T23:58:38.754Z,35.80
